sensor_id;sensor_type;location;lat;lon;timestamp;temperature;humidity
5607;DHT22;2825;53.116;9.392;2022-09-03T00:00:13;15.40;99.90
5607;DHT22;2825;53.116;9.392;2022-09-03T00:02:42;15.30;99.90
5607;DHT22;2825;53.116;9.392;2022-09-03T00:05:17;15.20;99.90
5607;DHT22;2825;53.116;9.392;2022-09-03T00:07:54;15.20;99.90
5607;DHT22;2825;53.116;9.392;2022-09-03T00:10:38;15.20;99.90
5607;DHT22;2825;53.116;9.392;2022-09-03T00:13:14;15.20;99.90
5607;DHT22;2825;53.116;9.392;2022-09-03T00:15:40;15.20;99.90
5607;DHT22;2825;53.116;9.392;2022-09-03T00:18:19;15.10;99.90
5607;DHT22;2825;53.116;9.392;2022-09-03T00:20:51;15.10;99.90
5607;DHT22;2825;53.116;9.392;2022-09-03T00:23:22;15.00;99.90
5607;DHT22;2825;53.116;9.392;2022-09-03T00:26:14;15.00;99.90
5607;DHT22;2825;53.116;9.392;2022-09-03T00:31:36;14.90;99.90
5607;DHT22;2825;53.116;9.392;2022-09-03T00:34:34;14.90;99.90
5607;DHT22;2825;53.116;9.392;2022-09-03T00:36:57;14.90;99.90
5607;DHT22;2825;53.116;9.392;2022-09-03T00:39:25;14.90;99.90
5607;DHT22;2825;53.116;9.392;2022-09-03T00:45:17;14.90;99.90
5607;DHT22;2825;53.116;9.392;2022-09-03T00:50:57;14.90;99.90
5607;DHT22;2825;53.116;9.392;2022-09-03T01:02:02;14.80;99.90
5607;DHT22;2825;53.116;9.392;2022-09-03T01:04:40;14.70;99.90
5607;DHT22;2825;53.116;9.392;2022-09-03T01:12:50;14.60;99.90
5607;DHT22;2825;53.116;9.392;2022-09-03T01:15:34;14.60;99.90
5607;DHT22;2825;53.116;9.392;2022-09-03T01:28:43;14.50;99.90
5607;DHT22;2825;53.116;9.392;2022-09-03T01:31:28;14.40;99.90
5607;DHT22;2825;53.116;9.392;2022-09-03T01:37:28;14.30;99.90
5607;DHT22;2825;53.116;9.392;2022-09-03T01:42:41;14.30;99.90
5607;DHT22;2825;53.116;9.392;2022-09-03T01:50:52;14.30;99.90
5607;DHT22;2825;53.116;9.392;2022-09-03T01:53:59;14.20;99.90
5607;DHT22;2825;53.116;9.392;2022-09-03T01:59:24;14.20;99.90
5607;DHT22;2825;53.116;9.392;2022-09-03T02:02:07;14.20;99.90
5607;DHT22;2825;53.116;9.392;2022-09-03T02:04:34;14.20;99.90
5607;DHT22;2825;53.116;9.392;2022-09-03T02:07:02;14.10;99.90
5607;DHT22;2825;53.116;9.392;2022-09-03T02:09:28;14.10;99.90
5607;DHT22;2825;53.116;9.392;2022-09-03T02:12:07;14.10;99.90
5607;DHT22;2825;53.116;9.392;2022-09-03T02:14:33;14.10;99.90
5607;DHT22;2825;53.116;9.392;2022-09-03T02:17:00;14.10;99.90
5607;DHT22;2825;53.116;9.392;2022-09-03T02:19:27;14.00;99.90
5607;DHT22;2825;53.116;9.392;2022-09-03T02:21:56;14.00;99.90
5607;DHT22;2825;53.116;9.392;2022-09-03T02:24:23;14.00;99.90
5607;DHT22;2825;53.116;9.392;2022-09-03T02:26:49;14.00;99.90
5607;DHT22;2825;53.116;9.392;2022-09-03T02:29:15;14.00;99.90
5607;DHT22;2825;53.116;9.392;2022-09-03T02:31:44;14.00;99.90
5607;DHT22;2825;53.116;9.392;2022-09-03T02:34:10;14.00;99.90
5607;DHT22;2825;53.116;9.392;2022-09-03T02:36:45;14.00;99.90
5607;DHT22;2825;53.116;9.392;2022-09-03T02:39:11;13.90;99.90
5607;DHT22;2825;53.116;9.392;2022-09-03T02:41:37;13.90;99.90
5607;DHT22;2825;53.116;9.392;2022-09-03T02:44:17;13.90;99.90
5607;DHT22;2825;53.116;9.392;2022-09-03T02:47:01;13.80;99.90
5607;DHT22;2825;53.116;9.392;2022-09-03T02:49:27;13.90;99.90
5607;DHT22;2825;53.116;9.392;2022-09-03T02:51:58;13.80;99.90
5607;DHT22;2825;53.116;9.392;2022-09-03T02:54:25;13.80;99.90
5607;DHT22;2825;53.116;9.392;2022-09-03T02:56:51;13.80;99.90
5607;DHT22;2825;53.116;9.392;2022-09-03T02:59:17;13.80;99.90
5607;DHT22;2825;53.116;9.392;2022-09-03T03:01:43;13.80;99.90
5607;DHT22;2825;53.116;9.392;2022-09-03T03:04:08;13.80;99.90
5607;DHT22;2825;53.116;9.392;2022-09-03T03:06:34;13.70;99.90
5607;DHT22;2825;53.116;9.392;2022-09-03T03:09:00;13.70;99.90
5607;DHT22;2825;53.116;9.392;2022-09-03T03:11:28;13.70;99.90
5607;DHT22;2825;53.116;9.392;2022-09-03T03:13:55;13.70;99.90
5607;DHT22;2825;53.116;9.392;2022-09-03T03:16:20;13.60;99.90
5607;DHT22;2825;53.116;9.392;2022-09-03T03:18:46;13.60;99.90
5607;DHT22;2825;53.116;9.392;2022-09-03T03:21:14;13.60;99.90
5607;DHT22;2825;53.116;9.392;2022-09-03T03:23:41;13.50;99.90
5607;DHT22;2825;53.116;9.392;2022-09-03T03:26:12;13.50;99.90
5607;DHT22;2825;53.116;9.392;2022-09-03T03:28:38;13.50;99.90
5607;DHT22;2825;53.116;9.392;2022-09-03T03:31:10;13.50;99.90
5607;DHT22;2825;53.116;9.392;2022-09-03T03:33:37;13.50;99.90
5607;DHT22;2825;53.116;9.392;2022-09-03T03:36:07;13.40;99.90
5607;DHT22;2825;53.116;9.392;2022-09-03T03:38:34;13.40;99.90
5607;DHT22;2825;53.116;9.392;2022-09-03T03:41:06;13.40;99.90
5607;DHT22;2825;53.116;9.392;2022-09-03T03:43:32;13.30;99.90
5607;DHT22;2825;53.116;9.392;2022-09-03T03:45:57;13.30;99.90
5607;DHT22;2825;53.116;9.392;2022-09-03T03:48:24;13.30;99.90
5607;DHT22;2825;53.116;9.392;2022-09-03T03:50:50;13.30;99.90
5607;DHT22;2825;53.116;9.392;2022-09-03T03:53:16;13.30;99.90
5607;DHT22;2825;53.116;9.392;2022-09-03T03:55:42;13.30;99.90
5607;DHT22;2825;53.116;9.392;2022-09-03T03:58:07;13.30;99.90
5607;DHT22;2825;53.116;9.392;2022-09-03T04:00:33;13.30;99.90
5607;DHT22;2825;53.116;9.392;2022-09-03T04:03:02;13.20;99.90
5607;DHT22;2825;53.116;9.392;2022-09-03T04:05:27;13.20;99.90
5607;DHT22;2825;53.116;9.392;2022-09-03T04:07:53;13.20;99.90
5607;DHT22;2825;53.116;9.392;2022-09-03T04:10:19;13.20;99.90
5607;DHT22;2825;53.116;9.392;2022-09-03T04:12:44;13.20;99.90
5607;DHT22;2825;53.116;9.392;2022-09-03T04:15:10;13.20;99.90
5607;DHT22;2825;53.116;9.392;2022-09-03T04:17:35;13.20;99.90
5607;DHT22;2825;53.116;9.392;2022-09-03T04:20:02;13.20;99.90
5607;DHT22;2825;53.116;9.392;2022-09-03T04:22:28;13.20;99.90
5607;DHT22;2825;53.116;9.392;2022-09-03T04:24:54;13.20;99.90
5607;DHT22;2825;53.116;9.392;2022-09-03T04:27:19;13.20;99.90
5607;DHT22;2825;53.116;9.392;2022-09-03T04:29:45;13.20;99.90
5607;DHT22;2825;53.116;9.392;2022-09-03T04:32:11;13.20;99.90
5607;DHT22;2825;53.116;9.392;2022-09-03T04:34:55;13.20;99.90
5607;DHT22;2825;53.116;9.392;2022-09-03T04:37:21;13.30;99.90
5607;DHT22;2825;53.116;9.392;2022-09-03T04:39:47;13.20;99.90
5607;DHT22;2825;53.116;9.392;2022-09-03T04:42:13;13.20;99.90
5607;DHT22;2825;53.116;9.392;2022-09-03T04:44:38;13.20;99.90
5607;DHT22;2825;53.116;9.392;2022-09-03T04:47:05;13.20;99.90
5607;DHT22;2825;53.116;9.392;2022-09-03T04:49:31;13.20;99.90
5607;DHT22;2825;53.116;9.392;2022-09-03T04:51:56;13.10;99.90
5607;DHT22;2825;53.116;9.392;2022-09-03T04:54:22;13.10;99.90
5607;DHT22;2825;53.116;9.392;2022-09-03T04:56:48;13.10;99.90
5607;DHT22;2825;53.116;9.392;2022-09-03T04:59:14;13.10;99.90
5607;DHT22;2825;53.116;9.392;2022-09-03T05:01:40;13.10;99.90
5607;DHT22;2825;53.116;9.392;2022-09-03T05:04:07;13.10;99.90
5607;DHT22;2825;53.116;9.392;2022-09-03T05:06:34;13.00;99.90
5607;DHT22;2825;53.116;9.392;2022-09-03T05:09:01;13.00;99.90
5607;DHT22;2825;53.116;9.392;2022-09-03T05:11:27;13.00;99.90
5607;DHT22;2825;53.116;9.392;2022-09-03T05:13:55;13.00;99.90
5607;DHT22;2825;53.116;9.392;2022-09-03T05:16:23;13.00;99.90
5607;DHT22;2825;53.116;9.392;2022-09-03T05:18:52;13.00;99.90
5607;DHT22;2825;53.116;9.392;2022-09-03T05:21:19;13.00;99.90
5607;DHT22;2825;53.116;9.392;2022-09-03T05:23:46;13.00;99.90
5607;DHT22;2825;53.116;9.392;2022-09-03T05:26:15;13.00;99.90
5607;DHT22;2825;53.116;9.392;2022-09-03T05:28:41;13.00;99.90
5607;DHT22;2825;53.116;9.392;2022-09-03T05:31:09;13.00;99.90
5607;DHT22;2825;53.116;9.392;2022-09-03T05:33:41;13.10;99.90
5607;DHT22;2825;53.116;9.392;2022-09-03T05:36:12;13.10;99.90
5607;DHT22;2825;53.116;9.392;2022-09-03T05:38:38;13.10;99.90
5607;DHT22;2825;53.116;9.392;2022-09-03T05:41:06;13.20;99.90
5607;DHT22;2825;53.116;9.392;2022-09-03T05:43:33;13.20;99.90
5607;DHT22;2825;53.116;9.392;2022-09-03T05:46:04;13.20;99.90
5607;DHT22;2825;53.116;9.392;2022-09-03T05:48:30;13.30;99.90
5607;DHT22;2825;53.116;9.392;2022-09-03T05:51:09;13.30;99.90
5607;DHT22;2825;53.116;9.392;2022-09-03T05:53:37;13.40;99.90
5607;DHT22;2825;53.116;9.392;2022-09-03T05:56:06;13.40;99.90
5607;DHT22;2825;53.116;9.392;2022-09-03T05:58:34;13.50;99.90
5607;DHT22;2825;53.116;9.392;2022-09-03T06:03:42;13.60;99.90
5607;DHT22;2825;53.116;9.392;2022-09-03T06:06:08;13.70;99.90
5607;DHT22;2825;53.116;9.392;2022-09-03T06:08:35;13.80;99.90
5607;DHT22;2825;53.116;9.392;2022-09-03T06:11:03;13.80;99.90
5607;DHT22;2825;53.116;9.392;2022-09-03T06:13:30;13.90;99.90
5607;DHT22;2825;53.116;9.392;2022-09-03T06:16:01;14.00;99.90
5607;DHT22;2825;53.116;9.392;2022-09-03T06:18:27;14.10;99.90
5607;DHT22;2825;53.116;9.392;2022-09-03T06:20:54;14.20;99.90
5607;DHT22;2825;53.116;9.392;2022-09-03T06:23:20;14.30;99.90
5607;DHT22;2825;53.116;9.392;2022-09-03T06:25:46;14.40;99.90
5607;DHT22;2825;53.116;9.392;2022-09-03T06:28:12;14.50;99.90
5607;DHT22;2825;53.116;9.392;2022-09-03T06:30:37;14.60;99.90
5607;DHT22;2825;53.116;9.392;2022-09-03T06:33:03;14.70;99.90
5607;DHT22;2825;53.116;9.392;2022-09-03T06:35:28;14.70;99.90
5607;DHT22;2825;53.116;9.392;2022-09-03T06:37:55;14.80;99.90
5607;DHT22;2825;53.116;9.392;2022-09-03T06:40:20;14.80;99.90
5607;DHT22;2825;53.116;9.392;2022-09-03T06:42:56;15.00;99.90
5607;DHT22;2825;53.116;9.392;2022-09-03T06:45:25;15.00;99.90
5607;DHT22;2825;53.116;9.392;2022-09-03T06:47:50;15.10;99.90
5607;DHT22;2825;53.116;9.392;2022-09-03T06:50:18;15.20;99.90
5607;DHT22;2825;53.116;9.392;2022-09-03T06:52:43;15.30;99.90
5607;DHT22;2825;53.116;9.392;2022-09-03T06:55:09;15.40;99.90
5607;DHT22;2825;53.116;9.392;2022-09-03T06:57:35;15.50;99.90
5607;DHT22;2825;53.116;9.392;2022-09-03T07:00:00;15.50;99.90
5607;DHT22;2825;53.116;9.392;2022-09-03T07:02:28;15.60;99.90
5607;DHT22;2825;53.116;9.392;2022-09-03T07:04:53;15.60;99.90
5607;DHT22;2825;53.116;9.392;2022-09-03T07:07:19;15.70;99.90
5607;DHT22;2825;53.116;9.392;2022-09-03T07:09:45;15.80;99.90
5607;DHT22;2825;53.116;9.392;2022-09-03T07:12:10;15.80;99.90
5607;DHT22;2825;53.116;9.392;2022-09-03T07:14:36;15.90;99.90
5607;DHT22;2825;53.116;9.392;2022-09-03T07:17:02;16.00;99.90
5607;DHT22;2825;53.116;9.392;2022-09-03T07:19:28;16.00;99.90
5607;DHT22;2825;53.116;9.392;2022-09-03T07:21:53;16.10;99.90
5607;DHT22;2825;53.116;9.392;2022-09-03T07:24:19;16.20;99.90
5607;DHT22;2825;53.116;9.392;2022-09-03T07:26:46;16.20;99.90
5607;DHT22;2825;53.116;9.392;2022-09-03T07:29:13;16.30;99.90
5607;DHT22;2825;53.116;9.392;2022-09-03T07:31:42;16.40;99.90
5607;DHT22;2825;53.116;9.392;2022-09-03T07:34:09;16.50;99.90
5607;DHT22;2825;53.116;9.392;2022-09-03T07:36:39;16.50;99.90
5607;DHT22;2825;53.116;9.392;2022-09-03T07:39:09;16.60;99.90
5607;DHT22;2825;53.116;9.392;2022-09-03T07:41:35;16.70;99.90
5607;DHT22;2825;53.116;9.392;2022-09-03T07:44:02;16.70;99.90
5607;DHT22;2825;53.116;9.392;2022-09-03T07:46:31;16.80;99.90
5607;DHT22;2825;53.116;9.392;2022-09-03T07:48:59;16.90;99.90
5607;DHT22;2825;53.116;9.392;2022-09-03T07:51:29;17.10;99.90
5607;DHT22;2825;53.116;9.392;2022-09-03T07:53:58;17.20;99.90
5607;DHT22;2825;53.116;9.392;2022-09-03T07:56:24;17.40;99.90
5607;DHT22;2825;53.116;9.392;2022-09-03T07:58:51;17.50;99.90
5607;DHT22;2825;53.116;9.392;2022-09-03T08:01:19;17.60;99.90
5607;DHT22;2825;53.116;9.392;2022-09-03T08:03:47;17.80;99.90
5607;DHT22;2825;53.116;9.392;2022-09-03T08:06:14;17.90;99.90
5607;DHT22;2825;53.116;9.392;2022-09-03T08:08:40;18.00;99.90
5607;DHT22;2825;53.116;9.392;2022-09-03T08:11:17;18.20;99.90
5607;DHT22;2825;53.116;9.392;2022-09-03T08:13:44;18.30;99.90
5607;DHT22;2825;53.116;9.392;2022-09-03T08:16:16;18.40;99.90
5607;DHT22;2825;53.116;9.392;2022-09-03T08:18:45;18.60;99.90
5607;DHT22;2825;53.116;9.392;2022-09-03T08:21:17;18.60;99.90
5607;DHT22;2825;53.116;9.392;2022-09-03T08:23:45;18.60;99.90
5607;DHT22;2825;53.116;9.392;2022-09-03T08:26:12;18.50;99.90
5607;DHT22;2825;53.116;9.392;2022-09-03T08:28:38;18.70;99.90
5607;DHT22;2825;53.116;9.392;2022-09-03T08:33:37;19.10;99.90
5607;DHT22;2825;53.116;9.392;2022-09-03T08:36:08;19.30;99.90
5607;DHT22;2825;53.116;9.392;2022-09-03T08:38:35;19.60;99.90
5607;DHT22;2825;53.116;9.392;2022-09-03T08:41:12;19.60;99.90
5607;DHT22;2825;53.116;9.392;2022-09-03T08:49:06;19.30;99.90
5607;DHT22;2825;53.116;9.392;2022-09-03T08:51:34;19.30;99.90
5607;DHT22;2825;53.116;9.392;2022-09-03T08:54:02;19.20;99.90
5607;DHT22;2825;53.116;9.392;2022-09-03T08:56:30;19.20;99.90
5607;DHT22;2825;53.116;9.392;2022-09-03T08:58:57;19.30;99.90
5607;DHT22;2825;53.116;9.392;2022-09-03T09:04:31;19.70;99.90
5607;DHT22;2825;53.116;9.392;2022-09-03T09:07:05;20.00;99.90
5607;DHT22;2825;53.116;9.392;2022-09-03T09:09:42;20.20;99.90
5607;DHT22;2825;53.116;9.392;2022-09-03T09:12:40;20.40;99.70
5607;DHT22;2825;53.116;9.392;2022-09-03T09:15:11;20.70;99.60
5607;DHT22;2825;53.116;9.392;2022-09-03T09:18:11;20.80;99.10
5607;DHT22;2825;53.116;9.392;2022-09-03T09:23:13;21.00;98.90
5607;DHT22;2825;53.116;9.392;2022-09-03T09:25:48;21.20;99.00
5607;DHT22;2825;53.116;9.392;2022-09-03T09:28:23;21.20;98.10
5607;DHT22;2825;53.116;9.392;2022-09-03T09:30:51;21.30;97.90
5607;DHT22;2825;53.116;9.392;2022-09-03T09:33:18;21.40;98.10
5607;DHT22;2825;53.116;9.392;2022-09-03T09:35:47;21.50;98.10
5607;DHT22;2825;53.116;9.392;2022-09-03T09:38:13;21.60;98.00
5607;DHT22;2825;53.116;9.392;2022-09-03T09:40:42;21.70;97.60
5607;DHT22;2825;53.116;9.392;2022-09-03T09:43:16;21.80;97.60
5607;DHT22;2825;53.116;9.392;2022-09-03T09:45:50;22.10;97.50
5607;DHT22;2825;53.116;9.392;2022-09-03T09:48:25;22.10;96.80
5607;DHT22;2825;53.116;9.392;2022-09-03T09:51:07;22.20;96.30
5607;DHT22;2825;53.116;9.392;2022-09-03T09:53:34;22.20;95.90
5607;DHT22;2825;53.116;9.392;2022-09-03T09:56:00;22.20;95.60
5607;DHT22;2825;53.116;9.392;2022-09-03T09:58:28;22.30;95.40
5607;DHT22;2825;53.116;9.392;2022-09-03T10:01:20;22.40;95.50
5607;DHT22;2825;53.116;9.392;2022-09-03T10:03:56;22.40;95.70
5607;DHT22;2825;53.116;9.392;2022-09-03T10:06:27;22.40;95.60
5607;DHT22;2825;53.116;9.392;2022-09-03T10:09:15;22.50;94.90
5607;DHT22;2825;53.116;9.392;2022-09-03T10:11:50;22.60;94.70
5607;DHT22;2825;53.116;9.392;2022-09-03T10:14:24;22.50;94.40
5607;DHT22;2825;53.116;9.392;2022-09-03T10:17:00;22.50;94.50
5607;DHT22;2825;53.116;9.392;2022-09-03T10:19:42;22.60;94.60
5607;DHT22;2825;53.116;9.392;2022-09-03T10:22:32;22.70;93.80
5607;DHT22;2825;53.116;9.392;2022-09-03T10:25:05;22.80;93.00
5607;DHT22;2825;53.116;9.392;2022-09-03T10:27:32;22.80;92.80
5607;DHT22;2825;53.116;9.392;2022-09-03T10:29:57;22.80;92.80
5607;DHT22;2825;53.116;9.392;2022-09-03T10:35:33;22.80;92.60
5607;DHT22;2825;53.116;9.392;2022-09-03T10:46:16;23.00;92.70
5607;DHT22;2825;53.116;9.392;2022-09-03T10:48:52;22.90;92.30
5607;DHT22;2825;53.116;9.392;2022-09-03T10:51:40;22.80;92.60
5607;DHT22;2825;53.116;9.392;2022-09-03T11:02:17;23.00;92.40
5607;DHT22;2825;53.116;9.392;2022-09-03T11:10:43;22.90;91.30
5607;DHT22;2825;53.116;9.392;2022-09-03T11:13:12;22.90;91.60
5607;DHT22;2825;53.116;9.392;2022-09-03T11:15:52;22.80;91.50
5607;DHT22;2825;53.116;9.392;2022-09-03T11:20:53;22.80;91.80
5607;DHT22;2825;53.116;9.392;2022-09-03T11:23:20;22.80;92.20
5607;DHT22;2825;53.116;9.392;2022-09-03T11:25:55;23.00;92.20
5607;DHT22;2825;53.116;9.392;2022-09-03T11:34:44;23.20;90.30
5607;DHT22;2825;53.116;9.392;2022-09-03T11:36:45;23.10;90.00
5607;DHT22;2825;53.116;9.392;2022-09-03T11:39:13;23.20;90.20
5607;DHT22;2825;53.116;9.392;2022-09-03T11:41:42;23.20;90.40
5607;DHT22;2825;53.116;9.392;2022-09-03T11:44:17;23.20;90.80
5607;DHT22;2825;53.116;9.392;2022-09-03T11:46:56;23.30;90.30
5607;DHT22;2825;53.116;9.392;2022-09-03T11:49:27;23.30;90.00
5607;DHT22;2825;53.116;9.392;2022-09-03T11:52:03;23.30;90.10
5607;DHT22;2825;53.116;9.392;2022-09-03T11:54:42;23.20;90.00
5607;DHT22;2825;53.116;9.392;2022-09-03T11:57:19;23.30;90.20
5607;DHT22;2825;53.116;9.392;2022-09-03T11:59:46;23.30;90.00
5607;DHT22;2825;53.116;9.392;2022-09-03T12:02:15;23.30;90.00
5607;DHT22;2825;53.116;9.392;2022-09-03T12:04:45;23.30;89.80
5607;DHT22;2825;53.116;9.392;2022-09-03T12:10:06;23.30;89.40
5607;DHT22;2825;53.116;9.392;2022-09-03T12:18:23;23.70;89.40
5607;DHT22;2825;53.116;9.392;2022-09-03T12:23:50;24.00;89.70
5607;DHT22;2825;53.116;9.392;2022-09-03T12:26:20;24.00;88.80
5607;DHT22;2825;53.116;9.392;2022-09-03T12:28:58;24.20;87.80
5607;DHT22;2825;53.116;9.392;2022-09-03T12:31:27;24.20;86.80
5607;DHT22;2825;53.116;9.392;2022-09-03T12:34:01;24.20;87.00
5607;DHT22;2825;53.116;9.392;2022-09-03T12:36:46;24.00;86.60
5607;DHT22;2825;53.116;9.392;2022-09-03T12:39:20;24.00;86.90
5607;DHT22;2825;53.116;9.392;2022-09-03T12:42:04;24.00;86.70
5607;DHT22;2825;53.116;9.392;2022-09-03T12:49:38;24.30;87.10
5607;DHT22;2825;53.116;9.392;2022-09-03T12:55:46;24.40;87.40
5607;DHT22;2825;53.116;9.392;2022-09-03T12:58:03;24.50;87.60
5607;DHT22;2825;53.116;9.392;2022-09-03T13:00:32;24.70;86.80
5607;DHT22;2825;53.116;9.392;2022-09-03T13:03:11;24.70;85.30
5607;DHT22;2825;53.116;9.392;2022-09-03T13:05:46;24.70;84.80
5607;DHT22;2825;53.116;9.392;2022-09-03T13:08:19;24.40;84.30
5607;DHT22;2825;53.116;9.392;2022-09-03T13:10:54;24.20;85.00
5607;DHT22;2825;53.116;9.392;2022-09-03T13:13:32;24.20;85.10
5607;DHT22;2825;53.116;9.392;2022-09-03T13:19:00;24.50;84.50
5607;DHT22;2825;53.116;9.392;2022-09-03T13:21:35;24.50;83.90
5607;DHT22;2825;53.116;9.392;2022-09-03T13:27:14;24.50;83.30
5607;DHT22;2825;53.116;9.392;2022-09-03T13:40:48;24.60;83.30
5607;DHT22;2825;53.116;9.392;2022-09-03T13:43:35;24.70;81.20
5607;DHT22;2825;53.116;9.392;2022-09-03T13:46:06;24.60;81.40
5607;DHT22;2825;53.116;9.392;2022-09-03T13:48:38;24.70;82.10
5607;DHT22;2825;53.116;9.392;2022-09-03T13:51:29;24.70;82.00
5607;DHT22;2825;53.116;9.392;2022-09-03T13:54:04;24.70;81.70
5607;DHT22;2825;53.116;9.392;2022-09-03T13:56:55;24.80;81.20
5607;DHT22;2825;53.116;9.392;2022-09-03T13:59:47;24.60;80.40
5607;DHT22;2825;53.116;9.392;2022-09-03T14:16:53;24.70;80.40
5607;DHT22;2825;53.116;9.392;2022-09-03T14:19:05;24.60;80.30
5607;DHT22;2825;53.116;9.392;2022-09-03T14:21:41;24.70;80.50
5607;DHT22;2825;53.116;9.392;2022-09-03T14:27:20;24.80;80.50
5607;DHT22;2825;53.116;9.392;2022-09-03T14:29:54;24.90;79.70
5607;DHT22;2825;53.116;9.392;2022-09-03T14:48:58;24.90;78.60
5607;DHT22;2825;53.116;9.392;2022-09-03T14:57:41;24.60;79.20
5607;DHT22;2825;53.116;9.392;2022-09-03T15:05:27;24.70;79.60
5607;DHT22;2825;53.116;9.392;2022-09-03T15:11:28;24.60;79.60
5607;DHT22;2825;53.116;9.392;2022-09-03T15:19:42;24.50;79.60
5607;DHT22;2825;53.116;9.392;2022-09-03T15:28:11;24.30;80.30
5607;DHT22;2825;53.116;9.392;2022-09-03T15:30:58;24.20;80.50
5607;DHT22;2825;53.116;9.392;2022-09-03T15:33:39;24.10;81.00
5607;DHT22;2825;53.116;9.392;2022-09-03T15:36:23;24.10;80.80
5607;DHT22;2825;53.116;9.392;2022-09-03T15:38:54;24.00;81.20
5607;DHT22;2825;53.116;9.392;2022-09-03T15:44:02;23.90;81.20
5607;DHT22;2825;53.116;9.392;2022-09-03T15:46:58;23.80;81.40
5607;DHT22;2825;53.116;9.392;2022-09-03T15:57:53;23.60;82.50
5607;DHT22;2825;53.116;9.392;2022-09-03T16:00:28;23.60;82.00
5607;DHT22;2825;53.116;9.392;2022-09-03T16:03:08;23.60;81.40
5607;DHT22;2825;53.116;9.392;2022-09-03T16:06:01;23.60;81.60
5607;DHT22;2825;53.116;9.392;2022-09-03T16:08:48;23.50;81.10
5607;DHT22;2825;53.116;9.392;2022-09-03T16:14:02;23.40;81.30
5607;DHT22;2825;53.116;9.392;2022-09-03T16:19:16;23.30;80.40
5607;DHT22;2825;53.116;9.392;2022-09-03T16:21:59;23.20;80.60
5607;DHT22;2825;53.116;9.392;2022-09-03T16:24:50;23.20;80.90
5607;DHT22;2825;53.116;9.392;2022-09-03T16:27:32;23.10;80.90
5607;DHT22;2825;53.116;9.392;2022-09-03T16:30:08;23.10;80.60
5607;DHT22;2825;53.116;9.392;2022-09-03T16:40:25;23.00;80.90
5607;DHT22;2825;53.116;9.392;2022-09-03T16:46:28;23.00;80.80
5607;DHT22;2825;53.116;9.392;2022-09-03T16:55:03;22.80;81.50
5607;DHT22;2825;53.116;9.392;2022-09-03T17:00:20;22.70;81.30
5607;DHT22;2825;53.116;9.392;2022-09-03T17:05:44;22.70;81.10
5607;DHT22;2825;53.116;9.392;2022-09-03T17:11:08;22.50;81.00
5607;DHT22;2825;53.116;9.392;2022-09-03T17:13:56;22.50;81.30
5607;DHT22;2825;53.116;9.392;2022-09-03T17:19:10;22.30;81.50
5607;DHT22;2825;53.116;9.392;2022-09-03T17:22:09;22.30;81.70
5607;DHT22;2825;53.116;9.392;2022-09-03T17:24:52;22.20;81.60
5607;DHT22;2825;53.116;9.392;2022-09-03T17:32:44;22.00;82.00
5607;DHT22;2825;53.116;9.392;2022-09-03T17:35:20;21.90;81.90
5607;DHT22;2825;53.116;9.392;2022-09-03T17:46:42;21.60;83.10
5607;DHT22;2825;53.116;9.392;2022-09-03T17:49:10;21.50;83.30
5607;DHT22;2825;53.116;9.392;2022-09-03T17:54:31;21.30;83.50
5607;DHT22;2825;53.116;9.392;2022-09-03T17:57:01;21.30;83.90
5607;DHT22;2825;53.116;9.392;2022-09-03T17:59:44;21.20;84.10
5607;DHT22;2825;53.116;9.392;2022-09-03T18:02:29;21.10;84.20
5607;DHT22;2825;53.116;9.392;2022-09-03T18:07:43;21.00;84.50
5607;DHT22;2825;53.116;9.392;2022-09-03T18:10:24;21.00;84.70
5607;DHT22;2825;53.116;9.392;2022-09-03T18:13:25;20.90;84.90
5607;DHT22;2825;53.116;9.392;2022-09-03T18:16:38;20.80;85.20
5607;DHT22;2825;53.116;9.392;2022-09-03T18:19:01;20.70;85.40
5607;DHT22;2825;53.116;9.392;2022-09-03T18:21:29;20.70;85.70
5607;DHT22;2825;53.116;9.392;2022-09-03T18:24:40;20.60;85.90
5607;DHT22;2825;53.116;9.392;2022-09-03T18:27:45;20.50;86.20
5607;DHT22;2825;53.116;9.392;2022-09-03T18:30:32;20.40;86.60
5607;DHT22;2825;53.116;9.392;2022-09-03T18:33:20;20.30;86.60
5607;DHT22;2825;53.116;9.392;2022-09-03T18:36:05;20.30;86.80
5607;DHT22;2825;53.116;9.392;2022-09-03T18:38:49;20.20;87.00
5607;DHT22;2825;53.116;9.392;2022-09-03T18:48:17;20.00;87.80
5607;DHT22;2825;53.116;9.392;2022-09-03T18:51:24;19.90;88.00
5607;DHT22;2825;53.116;9.392;2022-09-03T18:54:51;19.90;88.50
5607;DHT22;2825;53.116;9.392;2022-09-03T19:00:38;19.70;88.90
5607;DHT22;2825;53.116;9.392;2022-09-03T19:04:26;19.70;89.10
5607;DHT22;2825;53.116;9.392;2022-09-03T19:09:40;19.50;89.60
5607;DHT22;2825;53.116;9.392;2022-09-03T19:12:36;19.40;89.90
5607;DHT22;2825;53.116;9.392;2022-09-03T19:15:26;19.30;90.00
5607;DHT22;2825;53.116;9.392;2022-09-03T19:21:39;19.20;90.30
5607;DHT22;2825;53.116;9.392;2022-09-03T19:24:29;19.10;90.40
5607;DHT22;2825;53.116;9.392;2022-09-03T19:30:10;19.00;90.60
5607;DHT22;2825;53.116;9.392;2022-09-03T19:33:04;19.00;90.90
5607;DHT22;2825;53.116;9.392;2022-09-03T19:41:57;18.90;90.90
5607;DHT22;2825;53.116;9.392;2022-09-03T19:44:58;18.90;91.00
5607;DHT22;2825;53.116;9.392;2022-09-03T19:48:01;18.90;91.10
5607;DHT22;2825;53.116;9.392;2022-09-03T19:51:02;18.80;91.10
5607;DHT22;2825;53.116;9.392;2022-09-03T19:53:49;18.80;91.30
5607;DHT22;2825;53.116;9.392;2022-09-03T19:56:35;18.70;91.30
5607;DHT22;2825;53.116;9.392;2022-09-03T19:59:24;18.70;91.40
5607;DHT22;2825;53.116;9.392;2022-09-03T20:02:11;18.70;91.50
5607;DHT22;2825;53.116;9.392;2022-09-03T20:04:58;18.60;91.50
5607;DHT22;2825;53.116;9.392;2022-09-03T20:07:44;18.60;91.60
5607;DHT22;2825;53.116;9.392;2022-09-03T20:10:31;18.50;91.80
5607;DHT22;2825;53.116;9.392;2022-09-03T20:13:05;18.50;91.80
5607;DHT22;2825;53.116;9.392;2022-09-03T20:16:01;18.40;91.80
5607;DHT22;2825;53.116;9.392;2022-09-03T20:24:53;18.30;92.20
5607;DHT22;2825;53.116;9.392;2022-09-03T20:27:03;18.20;92.20
5607;DHT22;2825;53.116;9.392;2022-09-03T20:40:54;18.10;92.50
5607;DHT22;2825;53.116;9.392;2022-09-03T20:46:55;18.10;92.60
5607;DHT22;2825;53.116;9.392;2022-09-03T20:49:52;18.10;92.70
5607;DHT22;2825;53.116;9.392;2022-09-03T20:52:39;18.00;92.70
5607;DHT22;2825;53.116;9.392;2022-09-03T20:55:11;17.90;92.70
5607;DHT22;2825;53.116;9.392;2022-09-03T21:00:10;17.90;92.90
5607;DHT22;2825;53.116;9.392;2022-09-03T21:10:55;17.80;93.00
5607;DHT22;2825;53.116;9.392;2022-09-03T21:24:05;17.80;93.20
5607;DHT22;2825;53.116;9.392;2022-09-03T21:26:35;17.80;93.20
5607;DHT22;2825;53.116;9.392;2022-09-03T21:29:25;17.80;93.20
5607;DHT22;2825;53.116;9.392;2022-09-03T21:32:16;17.80;93.30
5607;DHT22;2825;53.116;9.392;2022-09-03T21:34:59;17.80;93.30
5607;DHT22;2825;53.116;9.392;2022-09-03T21:37:33;17.70;93.30
5607;DHT22;2825;53.116;9.392;2022-09-03T21:40:00;17.70;93.40
5607;DHT22;2825;53.116;9.392;2022-09-03T21:45:25;17.80;93.50
5607;DHT22;2825;53.116;9.392;2022-09-03T21:48:20;17.70;93.40
5607;DHT22;2825;53.116;9.392;2022-09-03T21:59:03;17.70;93.50
5607;DHT22;2825;53.116;9.392;2022-09-03T22:04:27;17.60;93.50
5607;DHT22;2825;53.116;9.392;2022-09-03T22:07:04;17.60;93.50
5607;DHT22;2825;53.116;9.392;2022-09-03T22:15:11;17.60;93.60
5607;DHT22;2825;53.116;9.392;2022-09-03T22:17:58;17.60;93.70
5607;DHT22;2825;53.116;9.392;2022-09-03T22:20:26;17.60;93.70
5607;DHT22;2825;53.116;9.392;2022-09-03T22:25:54;17.60;93.70
5607;DHT22;2825;53.116;9.392;2022-09-03T22:28:41;17.60;93.70
5607;DHT22;2825;53.116;9.392;2022-09-03T22:36:39;17.60;93.80
5607;DHT22;2825;53.116;9.392;2022-09-03T22:39:24;17.60;93.90